Startpagina
METAR-TAF:

METAR-TAF

Vliegvelden :

Fourchambault

Nevers, Frankrijk

breedte: 47-00N, lengte: 003-06E, hoogte: 180 m

Actueel weer

Dit bericht is 7 uur en het 35 minuten geleden gemaakt, om 18:00 UTC
Wind 2 kt uit variabele richting
Temperatuur 2°C
Vochtigheid 80%
Druk 1024 hPa
Zicht: 7000 m

METAR: LFQG 231800Z AUTO VRB02KT 7000 NSC 02/M01 Q1024

Tijdstip: 02:35 (01:35 UTC)


TAF: ontbreekt

Waarnemingen en weersverwachtingen van meer dan 4000 vliegvelden (METAR en TAF).

De beschikbare stations zijn de gele en rode punten op de kaart.

Ga met uw muis naar het station om de naam te zien.

Klik dan om waarnemingen en weersverwachtingen te zien.

kaart wijzigen: klik op de groene knoppen met een zwart kruis om in te zoomen, op de groene knop met een streepje om uit te zoomen of op de groene pijlen voor aangrenzende kaarten.


METAR-TAF: